Time;durP1;ratioP1;P1;durP2;ratioP2;P2;SDS_P1;SDS_P2;PMS_P1;PMS_P2;Temp;Humidity;BMP_temperature;BMP_pressure;BME280_temperature;BME280_humidity;BME280_pressure;Samples;Min_cycle;Max_cycle;Signal;HPM_P1;HPM_P2
2022/03/21 00:00:41;;;;;;;0.80;0.60;;;6.10;77.60;;;;;;4955436;29;20438;-84
2022/03/21 00:03:10;;;;;;;0.30;0.30;;;6.10;76.80;;;;;;4955134;29;21015;-83
2022/03/21 00:05:37;;;;;;;0.53;0.53;;;6.00;77.10;;;;;;4955043;29;20461;-83
2022/03/21 00:08:05;;;;;;;0.63;0.40;;;6.00;77.40;;;;;;4955135;29;20490;-83
2022/03/21 00:10:33;;;;;;;2.00;1.60;;;5.90;77.80;;;;;;4955355;29;20457;-83
2022/03/21 00:13:00;;;;;;;2.30;0.60;;;5.90;77.50;;;;;;4955001;29;20825;-83
2022/03/21 00:15:27;;;;;;;0.87;0.63;;;5.80;78.20;;;;;;4955177;29;20457;-84
2022/03/21 00:17:55;;;;;;;0.70;0.63;;;5.80;78.80;;;;;;4955179;29;20809;-83
2022/03/21 00:20:23;;;;;;;1.17;1.03;;;5.80;77.90;;;;;;4954865;29;20486;-84
2022/03/21 00:22:52;;;;;;;1.03;1.03;;;5.70;77.80;;;;;;4955208;29;20461;-83
2022/03/21 00:25:18;;;;;;;0.30;0.30;;;5.80;78.50;;;;;;4955143;29;20899;-83
2022/03/21 00:27:45;;;;;;;1.03;1.03;;;5.80;77.90;;;;;;4954994;29;20488;-83
2022/03/21 00:30:13;;;;;;;0.80;0.60;;;5.80;78.70;;;;;;4955369;29;20454;-84
2022/03/21 00:32:40;;;;;;;0.30;0.30;;;5.80;76.50;;;;;;4955060;29;20550;-83
2022/03/21 00:35:08;;;;;;;3.70;1.27;;;5.90;73.30;;;;;;4954812;29;20450;-83
2022/03/21 00:37:37;;;;;;;3.10;1.07;;;6.00;71.50;;;;;;4954741;29;20442;-83
2022/03/21 00:40:06;;;;;;;1.43;0.60;;;6.20;71.20;;;;;;4955040;29;20513;-83
2022/03/21 00:42:34;;;;;;;0.60;0.50;;;6.30;70.30;;;;;;4955150;29;20485;-86
2022/03/21 00:45:00;;;;;;;0.50;0.50;;;6.40;69.50;;;;;;4955185;29;20458;-86
2022/03/21 00:47:27;;;;;;;1.33;0.60;;;6.50;69.70;;;;;;4955272;29;20881;-86
2022/03/21 00:49:54;;;;;;;0.50;0.40;;;6.50;68.60;;;;;;4954934;29;20500;-86
2022/03/21 00:52:21;;;;;;;1.30;0.43;;;6.60;68.50;;;;;;4955195;29;20537;-86
2022/03/21 00:54:49;;;;;;;0.80;0.80;;;6.70;68.50;;;;;;4954977;29;20465;-86
2022/03/21 00:57:16;;;;;;;0.57;0.57;;;6.70;67.70;;;;;;4955135;29;20457;-86
2022/03/21 00:59:43;;;;;;;0.40;0.30;;;6.70;68.00;;;;;;4955150;28;20481;-86
2022/03/21 01:02:12;;;;;;;0.50;0.50;;;6.70;67.70;;;;;;4958611;29;20938;-86
2022/03/21 01:04:39;;;;;;;1.27;0.60;;;6.70;67.10;;;;;;4958862;29;20447;-86
2022/03/21 01:07:06;;;;;;;1.07;0.60;;;6.70;67.60;;;;;;4958297;29;20444;-86
2022/03/21 01:09:33;;;;;;;0.40;0.40;;;6.70;67.70;;;;;;4958323;29;20841;-86
2022/03/21 01:12:03;;;;;;;0.60;0.47;;;6.70;67.90;;;;;;4958552;29;20797;-86
2022/03/21 01:14:31;;;;;;;0.93;0.93;;;6.60;68.20;;;;;;4958645;29;20438;-86
2022/03/21 01:16:58;;;;;;;0.93;0.40;;;6.60;68.20;;;;;;4958207;29;20450;-86
2022/03/21 01:19:27;;;;;;;0.90;0.80;;;6.60;68.20;;;;;;4958463;29;20836;-86
2022/03/21 01:21:54;;;;;;;0.50;0.50;;;6.50;68.90;;;;;;4958731;29;20546;-86
2022/03/21 01:24:21;;;;;;;0.97;0.97;;;6.50;68.80;;;;;;4958329;29;20458;-86
2022/03/21 01:26:48;;;;;;;3.13;0.57;;;6.40;68.90;;;;;;4958240;29;20454;-86
2022/03/21 01:29:16;;;;;;;1.37;0.77;;;6.40;70.40;;;;;;4958083;29;20974;-86
2022/03/21 01:31:43;;;;;;;3.80;0.60;;;6.30;71.10;;;;;;4958226;29;20476;-86
2022/03/21 01:34:10;;;;;;;0.40;0.40;;;6.20;71.80;;;;;;4958034;29;20435;-86
2022/03/21 01:36:37;;;;;;;0.43;0.43;;;6.10;72.50;;;;;;4958047;29;20450;-86
2022/03/21 01:39:04;;;;;;;0.60;0.60;;;6.00;73.20;;;;;;4957736;29;21075;-86
2022/03/21 01:41:31;;;;;;;0.40;0.40;;;5.90;73.10;;;;;;4958084;29;20545;-86
2022/03/21 01:43:59;;;;;;;0.53;0.53;;;5.80;73.70;;;;;;4957912;29;20445;-86
2022/03/21 01:46:28;;;;;;;0.40;0.40;;;5.70;74.10;;;;;;4957920;29;20881;-86
2022/03/21 01:48:56;;;;;;;0.70;0.50;;;5.70;74.50;;;;;;4957300;29;20490;-86
2022/03/21 01:51:23;;;;;;;1.17;0.77;;;5.60;75.30;;;;;;4957976;29;20456;-86
2022/03/21 01:56:34;;;;;;;8.57;1.00;;;5.50;77.00;;;;;;4958001;29;20515;-86
2022/03/21 01:59:02;;;;;;;1.00;1.00;;;5.40;77.50;;;;;;4957656;29;20841;-86
2022/03/21 02:01:30;;;;;;;1.73;0.53;;;5.40;76.60;;;;;;4958113;29;20794;-86
2022/03/21 02:03:57;;;;;;;0.70;0.67;;;5.30;75.80;;;;;;4957517;29;20435;-86
2022/03/21 02:06:25;;;;;;;0.47;0.47;;;5.40;77.50;;;;;;4957608;29;20452;-86
2022/03/21 02:08:52;;;;;;;2.40;0.50;;;5.40;76.40;;;;;;4957203;29;20490;-86
2022/03/21 02:11:19;;;;;;;0.70;0.70;;;5.30;76.60;;;;;;4956825;28;20449;-86
2022/03/21 02:13:46;;;;;;;5.23;0.90;;;5.30;77.70;;;;;;4956711;29;20942;-86
2022/03/21 02:16:13;;;;;;;0.70;0.70;;;5.30;79.10;;;;;;4957423;29;20533;-86
2022/03/21 02:18:44;;;;;;;6.10;0.87;;;5.40;75.70;;;;;;4957083;29;20842;-86
2022/03/21 02:21:20;;;;;;;2.10;0.70;;;5.30;76.00;;;;;;4957495;29;20439;-86
2022/03/21 02:23:53;;;;;;;0.80;0.57;;;5.30;76.80;;;;;;4957041;29;20445;-86
2022/03/21 02:26:23;;;;;;;1.30;0.37;;;5.20;78.20;;;;;;4957978;29;20509;-86
2022/03/21 02:28:51;;;;;;;0.47;0.47;;;5.10;78.80;;;;;;4957247;29;20569;-86
2022/03/21 02:31:18;;;;;;;0.40;0.40;;;5.10;78.90;;;;;;4957600;29;20454;-86
2022/03/21 02:33:48;;;;;;;2.20;0.40;;;5.20;77.70;;;;;;4957034;29;20473;-86
2022/03/21 02:36:17;;;;;;;0.30;0.30;;;5.20;77.00;;;;;;4957217;29;20474;-86
2022/03/21 02:38:46;;;;;;;0.30;0.27;;;5.10;77.30;;;;;;4956988;29;20470;-86
2022/03/21 02:41:14;;;;;;;0.97;0.97;;;5.10;78.30;;;;;;4956710;29;20953;-86
2022/03/21 02:43:55;;;;;;;0.40;0.40;;;5.10;79.20;;;;;;4956871;29;20442;-86
2022/03/21 02:46:23;;;;;;;0.70;0.70;;;5.10;81.20;;;;;;4956990;29;20444;-85
2022/03/21 02:48:51;;;;;;;0.30;0.30;;;5.10;81.60;;;;;;4956361;29;20494;-86
2022/03/21 02:51:21;;;;;;;1.03;0.90;;;5.20;80.90;;;;;;4956908;29;20460;-86
2022/03/21 02:53:49;;;;;;;0.40;0.30;;;5.30;81.30;;;;;;4956521;29;20439;-86
2022/03/21 02:56:16;;;;;;;0.40;0.40;;;5.30;81.60;;;;;;4956397;29;20434;-86
2022/03/21 02:58:43;;;;;;;0.30;0.30;;;5.40;81.30;;;;;;4956400;29;20468;-86
2022/03/21 03:01:13;;;;;;;2.07;0.57;;;5.40;81.20;;;;;;4956989;29;20454;-86
2022/03/21 03:03:40;;;;;;;0.70;0.70;;;5.40;81.70;;;;;;4956214;29;20434;-86
2022/03/21 03:06:07;;;;;;;3.70;1.27;;;5.40;81.40;;;;;;4956673;29;20460;-86
2022/03/21 03:08:35;;;;;;;0.80;0.60;;;5.40;81.60;;;;;;4956395;29;20505;-86
2022/03/21 03:11:02;;;;;;;0.30;0.30;;;5.30;82.10;;;;;;4956462;29;20461;-86
2022/03/21 03:13:28;;;;;;;0.30;0.20;;;5.30;81.40;;;;;;4956058;29;20450;-86
2022/03/21 03:15:55;;;;;;;0.50;0.30;;;5.30;81.40;;;;;;4956187;29;20438;-86
2022/03/21 03:18:24;;;;;;;0.50;0.50;;;5.30;81.50;;;;;;4956172;29;20545;-86
2022/03/21 03:20:52;;;;;;;0.30;0.30;;;5.30;80.90;;;;;;4956407;29;20446;-86
2022/03/21 03:23:20;;;;;;;0.30;0.30;;;5.20;80.70;;;;;;4956028;28;20473;-86
2022/03/21 03:25:47;;;;;;;0.83;0.83;;;5.20;82.40;;;;;;4955887;29;20815;-86
2022/03/21 03:28:14;;;;;;;0.87;0.87;;;5.00;82.40;;;;;;4955893;29;21016;-86
2022/03/21 03:30:41;;;;;;;0.60;0.60;;;5.10;82.20;;;;;;4956002;29;20445;-86
2022/03/21 03:33:09;;;;;;;3.73;0.90;;;5.00;83.00;;;;;;4955823;29;20438;-86
2022/03/21 03:35:37;;;;;;;2.00;0.90;;;5.00;83.70;;;;;;4956060;29;20503;-86
2022/03/21 03:38:04;;;;;;;1.70;1.70;;;4.90;84.00;;;;;;4955573;29;20458;-86
2022/03/21 03:40:31;;;;;;;0.40;0.40;;;4.90;84.60;;;;;;4956011;29;20454;-86
2022/03/21 03:42:58;;;;;;;0.40;0.40;;;4.90;85.90;;;;;;4955868;29;20534;-85
2022/03/21 03:45:26;;;;;;;0.67;0.67;;;4.90;85.90;;;;;;4955734;29;20526;-86
2022/03/21 03:47:52;;;;;;;0.97;0.77;;;4.90;85.90;;;;;;4955328;29;20856;-86
2022/03/21 03:50:20;;;;;;;1.80;0.57;;;4.90;83.80;;;;;;4955704;29;20950;-86
2022/03/21 03:52:48;;;;;;;0.40;0.30;;;5.10;81.20;;;;;;4955741;29;20450;-86
2022/03/21 03:55:17;;;;;;;0.30;0.30;;;5.00;81.50;;;;;;4955914;29;20799;-86
2022/03/21 03:57:44;;;;;;;0.30;0.30;;;5.00;81.10;;;;;;4955799;29;20556;-85
2022/03/21 04:00:12;;;;;;;1.00;0.73;;;5.00;82.30;;;;;;4955726;29;20460;-86
2022/03/21 04:05:21;;;;;;;0.40;0.40;;;4.80;85.10;;;;;;4954568;29;20442;-86
2022/03/21 04:07:49;;;;;;;0.80;0.80;;;4.70;85.60;;;;;;4955688;29;20453;-86
2022/03/21 04:10:16;;;;;;;1.67;0.50;;;4.70;86.50;;;;;;4955439;29;20525;-86
2022/03/21 04:12:44;;;;;;;0.70;0.67;;;4.60;85.00;;;;;;4955542;29;20461;-86
2022/03/21 04:15:11;;;;;;;2.77;1.23;;;4.60;85.70;;;;;;4955235;29;20965;-86
2022/03/21 04:17:38;;;;;;;0.30;0.30;;;4.50;84.20;;;;;;4955675;29;20442;-86
2022/03/21 04:20:06;;;;;;;1.27;1.17;;;4.50;84.40;;;;;;4955580;29;20453;-86
2022/03/21 04:22:34;;;;;;;0.30;0.30;;;4.50;82.70;;;;;;4955630;29;20465;-86
2022/03/21 04:25:03;;;;;;;0.63;0.50;;;4.60;82.40;;;;;;4955858;29;20450;-86
2022/03/21 04:27:30;;;;;;;1.07;1.07;;;4.60;82.60;;;;;;4955165;29;20468;-86
2022/03/21 04:29:57;;;;;;;1.67;0.50;;;4.70;81.70;;;;;;4955163;29;20501;-86
2022/03/21 04:32:24;;;;;;;0.70;0.70;;;4.70;81.20;;;;;;4955260;29;20816;-86
2022/03/21 04:34:51;;;;;;;0.50;0.50;;;4.80;80.90;;;;;;4955238;28;20537;-86
2022/03/21 04:37:18;;;;;;;0.43;0.43;;;4.80;81.30;;;;;;4959101;29;20584;-86
2022/03/21 04:39:45;;;;;;;0.30;0.30;;;4.80;81.20;;;;;;4958868;29;20835;-86
2022/03/21 04:42:13;;;;;;;0.30;0.30;;;4.80;81.50;;;;;;4958889;29;20545;-86
2022/03/21 04:44:40;;;;;;;0.40;0.40;;;4.70;82.20;;;;;;4959115;29;20456;-86
2022/03/21 04:47:07;;;;;;;0.40;0.40;;;4.70;82.80;;;;;;4958975;29;20442;-86
2022/03/21 04:49:34;;;;;;;1.90;0.97;;;4.60;83.90;;;;;;4958522;29;21013;-84
2022/03/21 04:52:01;;;;;;;0.70;0.70;;;4.50;84.50;;;;;;4958999;29;20797;-86
2022/03/21 04:54:28;;;;;;;0.30;0.30;;;4.50;83.70;;;;;;4958616;29;20966;-86
2022/03/21 04:56:55;;;;;;;1.37;1.37;;;4.50;84.10;;;;;;4958528;29;20528;-86
2022/03/21 04:59:23;;;;;;;1.87;0.60;;;4.50;84.10;;;;;;4958646;29;20530;-86
2022/03/21 05:01:51;;;;;;;0.40;0.40;;;4.60;85.80;;;;;;4959158;29;20480;-86
2022/03/21 05:04:19;;;;;;;2.60;0.73;;;4.60;85.80;;;;;;4958767;29;20819;-86
2022/03/21 05:06:46;;;;;;;0.40;0.40;;;4.50;86.40;;;;;;4958831;29;20446;-86
2022/03/21 05:09:12;;;;;;;0.30;0.30;;;4.40;87.30;;;;;;4958516;29;20489;-87
2022/03/21 05:11:40;;;;;;;0.50;0.50;;;4.40;87.30;;;;;;4958325;29;20448;-86
2022/03/21 05:14:07;;;;;;;0.57;0.57;;;4.30;86.80;;;;;;4958434;29;20454;-86
2022/03/21 05:16:36;;;;;;;0.40;0.40;;;4.20;87.20;;;;;;4958852;29;20464;-86
2022/03/21 05:19:03;;;;;;;0.50;0.37;;;4.10;88.30;;;;;;4958466;29;20462;-86
2022/03/21 05:21:29;;;;;;;0.93;0.93;;;4.10;88.40;;;;;;4958540;29;20450;-86
2022/03/21 05:32:19;;;;;;;0.93;0.80;;;3.80;89.90;;;;;;4958372;29;20417;-86
2022/03/21 05:37:32;;;;;;;2.43;0.50;;;3.90;90.20;;;;;;4958342;29;20406;-86
2022/03/21 05:42:43;;;;;;;0.33;0.33;;;4.00;90.30;;;;;;4958143;29;20933;-86
2022/03/21 05:45:11;;;;;;;1.00;1.00;;;4.00;90.70;;;;;;4957823;29;20434;-86
2022/03/21 05:50:19;;;;;;;0.53;0.53;;;4.00;91.10;;;;;;4956499;29;21001;-86
2022/03/21 05:52:49;;;;;;;0.40;0.40;;;4.00;91.40;;;;;;4957612;29;20465;-85
2022/03/21 05:55:17;;;;;;;0.40;0.40;;;4.00;91.50;;;;;;4958161;29;20766;-86
2022/03/21 05:57:44;;;;;;;0.30;0.30;;;4.00;91.00;;;;;;4957531;29;20470;-86
2022/03/21 06:00:23;;;;;;;0.40;0.40;;;4.00;91.30;;;;;;4957546;29;20464;-86
2022/03/21 06:02:52;;;;;;;0.70;0.70;;;3.90;91.90;;;;;;4957674;29;20414;-85
2022/03/21 06:05:19;;;;;;;0.30;0.30;;;4.00;92.40;;;;;;4957515;29;20461;-86
2022/03/21 06:07:46;;;;;;;0.30;0.30;;;4.10;92.70;;;;;;4957095;29;20465;-85
2022/03/21 06:10:13;;;;;;;0.30;0.30;;;4.20;92.70;;;;;;4957190;29;20537;-86
2022/03/21 06:12:40;;;;;;;0.37;0.33;;;4.30;92.40;;;;;;4957419;29;20454;-86
2022/03/21 06:15:09;;;;;;;0.50;0.50;;;4.30;92.30;;;;;;4957136;29;20435;-86
2022/03/21 06:17:39;;;;;;;1.47;0.60;;;4.40;92.50;;;;;;4957471;29;20450;-86
2022/03/21 06:20:09;;;;;;;0.77;0.60;;;4.50;92.50;;;;;;4957297;29;20509;-86
2022/03/21 06:22:36;;;;;;;0.47;0.47;;;4.60;92.70;;;;;;4957290;29;20437;-86
2022/03/21 06:25:03;;;;;;;0.40;0.40;;;4.90;92.80;;;;;;4957040;29;20559;-86
2022/03/21 06:27:30;;;;;;;0.73;0.73;;;5.10;92.30;;;;;;4957142;29;20450;-86
2022/03/21 06:29:57;;;;;;;0.40;0.40;;;5.50;91.90;;;;;;4956796;29;20489;-86
2022/03/21 06:32:25;;;;;;;1.00;0.57;;;5.90;92.00;;;;;;4957566;29;20465;-86
2022/03/21 06:34:52;;;;;;;1.40;1.30;;;6.20;91.80;;;;;;4960121;29;20462;-86
2022/03/21 06:37:20;;;;;;;0.30;0.30;;;6.40;91.60;;;;;;4961492;29;20446;-86
2022/03/21 06:39:47;;;;;;;0.40;0.40;;;6.50;91.00;;;;;;4960844;29;20478;-86
2022/03/21 06:42:14;;;;;;;6.13;0.77;;;6.40;91.00;;;;;;4960298;29;20458;-86
2022/03/21 06:44:42;;;;;;;0.70;0.70;;;6.40;90.70;;;;;;4960205;29;20443;-86
2022/03/21 06:47:09;;;;;;;0.40;0.40;;;6.30;90.80;;;;;;4960362;29;20469;-86
2022/03/21 06:49:36;;;;;;;0.77;0.77;;;6.30;90.40;;;;;;4957377;29;20501;-86
2022/03/21 06:52:06;;;;;;;0.33;0.33;;;6.20;90.50;;;;;;4956928;29;20450;-86
2022/03/21 06:54:35;;;;;;;0.50;0.50;;;6.20;91.10;;;;;;4956794;29;20453;-86
2022/03/21 06:57:02;;;;;;;1.60;1.47;;;6.20;91.00;;;;;;4956278;29;20510;-86
2022/03/21 06:59:29;;;;;;;0.40;0.37;;;6.20;91.00;;;;;;4955613;28;20466;-86
2022/03/21 07:01:56;;;;;;;0.80;0.80;;;6.20;90.70;;;;;;4956243;29;20474;-86
2022/03/21 07:04:24;;;;;;;4.07;1.63;;;6.20;90.70;;;;;;4956629;29;20439;-86
2022/03/21 07:06:51;;;;;;;1.57;0.50;;;6.30;90.70;;;;;;4956553;29;20814;-86
2022/03/21 07:09:17;;;;;;;1.50;0.60;;;6.30;90.90;;;;;;4956320;29;20501;-86
2022/03/21 07:11:46;;;;;;;0.50;0.30;;;6.40;90.60;;;;;;4956118;29;20438;-85
2022/03/21 07:14:13;;;;;;;0.40;0.37;;;6.50;90.80;;;;;;4956463;29;20458;-86
2022/03/21 07:16:40;;;;;;;0.30;0.27;;;6.50;90.80;;;;;;4956263;29;20439;-86
2022/03/21 07:19:07;;;;;;;2.13;0.97;;;6.60;90.20;;;;;;4956065;29;20462;-86
2022/03/21 07:21:34;;;;;;;0.80;0.80;;;6.70;90.00;;;;;;4956797;29;20458;-86
2022/03/21 07:24:00;;;;;;;0.63;0.63;;;6.70;90.10;;;;;;4956328;29;20469;-86
2022/03/21 07:26:27;;;;;;;10.13;0.80;;;6.80;89.90;;;;;;4956180;29;20434;-85
2022/03/21 07:28:55;;;;;;;1.63;0.60;;;6.90;89.70;;;;;;4955896;29;20478;-86
2022/03/21 07:31:23;;;;;;;0.40;0.40;;;7.10;89.70;;;;;;4955724;29;20457;-86
2022/03/21 07:33:50;;;;;;;0.70;0.60;;;7.20;89.40;;;;;;4955928;29;20458;-86
2022/03/21 07:36:17;;;;;;;1.07;0.80;;;7.40;87.70;;;;;;4955786;29;20948;-86
2022/03/21 07:38:43;;;;;;;1.17;0.50;;;7.60;86.30;;;;;;4955874;29;20477;-86
2022/03/21 07:41:10;;;;;;;1.87;0.53;;;7.80;84.40;;;;;;4955957;29;20435;-86
2022/03/21 07:43:37;;;;;;;3.43;0.80;;;7.90;86.40;;;;;;4955578;29;20434;-86
2022/03/21 07:48:51;;;;;;;0.77;0.77;;;8.10;86.10;;;;;;4955274;29;20485;-85
2022/03/21 07:51:18;;;;;;;1.60;0.80;;;8.10;86.50;;;;;;4955715;29;20490;-86
2022/03/21 07:53:45;;;;;;;0.63;0.63;;;8.10;85.80;;;;;;4955677;29;20462;-85
2022/03/21 07:56:12;;;;;;;0.40;0.40;;;8.20;86.10;;;;;;4955530;29;20797;-83
2022/03/21 07:58:39;;;;;;;1.33;1.20;;;8.40;86.20;;;;;;4955373;29;20464;-83
2022/03/21 08:01:07;;;;;;;2.83;1.27;;;8.60;85.70;;;;;;4955396;29;20453;-83
2022/03/21 08:03:34;;;;;;;1.87;0.60;;;8.80;85.30;;;;;;4955147;29;20438;-83
2022/03/21 08:06:02;;;;;;;0.67;0.67;;;8.80;84.80;;;;;;4955108;29;20435;-83
2022/03/21 08:08:29;;;;;;;2.30;0.60;;;8.90;84.60;;;;;;4955192;29;20463;-83
2022/03/21 08:10:57;;;;;;;1.10;1.00;;;9.10;84.50;;;;;;4955109;28;20493;-82
2022/03/21 08:13:25;;;;;;;1.13;0.70;;;9.30;83.50;;;;;;4955487;29;20474;-83
2022/03/21 08:15:52;;;;;;;0.77;0.77;;;9.50;83.50;;;;;;4955198;29;20439;-83
2022/03/21 08:18:20;;;;;;;2.33;1.00;;;9.60;81.70;;;;;;4955134;29;20477;-83
2022/03/21 08:20:47;;;;;;;0.80;0.70;;;9.80;82.30;;;;;;4955234;29;20438;-83
2022/03/21 08:23:15;;;;;;;4.40;1.80;;;10.00;80.80;;;;;;4955122;29;20446;-83
2022/03/21 08:25:45;;;;;;;5.60;1.73;;;10.20;79.00;;;;;;4955118;29;20465;-82
2022/03/21 08:28:14;;;;;;;8.13;1.10;;;10.40;77.20;;;;;;4955337;29;20469;-82
2022/03/21 08:30:42;;;;;;;1.33;1.03;;;10.70;76.40;;;;;;4954718;29;20533;-83
2022/03/21 08:33:10;;;;;;;0.97;0.97;;;10.80;74.60;;;;;;4955443;29;20812;-83
2022/03/21 08:35:40;;;;;;;2.00;1.27;;;11.00;75.70;;;;;;4954737;29;20472;-83
2022/03/21 08:38:08;;;;;;;2.53;0.60;;;11.20;74.00;;;;;;4954994;29;20470;-82
2022/03/21 08:40:36;;;;;;;2.87;1.40;;;11.40;73.30;;;;;;4954977;29;20446;-83
2022/03/21 08:43:03;;;;;;;3.10;1.40;;;11.70;74.20;;;;;;4955071;29;20460;-85
2022/03/21 08:45:30;;;;;;;1.13;1.03;;;11.90;75.00;;;;;;4955092;29;20824;-85
2022/03/21 08:47:57;;;;;;;1.47;1.17;;;12.10;74.90;;;;;;4954742;29;20470;-85
2022/03/21 08:50:23;;;;;;;1.77;0.70;;;12.30;72.60;;;;;;4954736;29;20466;-84
2022/03/21 08:52:51;;;;;;;4.03;2.17;;;12.40;72.60;;;;;;4954974;29;20807;-83
2022/03/21 08:55:18;;;;;;;4.03;1.40;;;12.60;71.00;;;;;;4955106;29;20450;-86
2022/03/21 08:57:45;;;;;;;2.80;1.40;;;12.80;69.20;;;;;;4955029;29;20464;-87
2022/03/21 09:00:13;;;;;;;3.73;1.80;;;13.00;68.30;;;;;;4955328;29;20438;-87
2022/03/21 09:02:41;;;;;;;3.80;1.63;;;13.20;67.70;;;;;;4955410;29;20816;-86
2022/03/21 09:05:12;;;;;;;1.53;1.20;;;13.40;67.70;;;;;;4955150;29;20465;-86
2022/03/21 09:07:39;;;;;;;6.10;1.43;;;13.70;68.00;;;;;;4955069;29;20799;-86
2022/03/21 09:10:10;;;;;;;3.30;2.43;;;14.30;67.40;;;;;;4954984;29;20494;-87
2022/03/21 09:12:37;;;;;;;6.83;2.80;;;15.20;65.70;;;;;;4955153;29;20438;-86
2022/03/21 09:15:05;;;;;;;3.07;1.30;;;16.50;63.10;;;;;;4954810;29;20442;-86
2022/03/21 09:17:31;;;;;;;2.00;1.70;;;17.70;59.20;;;;;;4954884;29;20461;-85
2022/03/21 09:19:58;;;;;;;3.83;2.67;;;19.00;58.30;;;;;;4954574;29;20469;-86
2022/03/21 09:22:25;;;;;;;5.27;2.03;;;20.20;55.30;;;;;;4956847;28;20449;-85
2022/03/21 09:24:52;;;;;;;4.67;2.27;;;20.90;52.90;;;;;;4958123;29;20453;-86
2022/03/21 09:27:22;;;;;;;4.93;2.90;;;21.60;50.10;;;;;;4957931;29;20460;-82
2022/03/21 09:29:49;;;;;;;3.67;2.17;;;22.10;48.20;;;;;;4957568;29;20995;-82
2022/03/21 09:32:17;;;;;;;2.25;2.05;;;22.50;48.00;;;;;;4957925;29;20213;-83
2022/03/21 09:34:44;;;;;;;2.75;1.55;;;22.50;47.10;;;;;;4957912;29;20690;-82
2022/03/21 09:37:11;;;;;;;5.07;1.73;;;22.80;45.80;;;;;;4957579;29;20203;-82
2022/03/21 09:39:38;;;;;;;5.38;2.50;;;23.20;45.10;;;;;;4957783;29;20284;-82
2022/03/21 09:42:06;;;;;;;4.05;1.80;;;23.40;42.70;;;;;;4957804;29;20222;-82
2022/03/21 09:44:35;;;;;;;6.75;3.05;;;23.30;42.40;;;;;;4957689;29;20221;-82
2022/03/21 09:48:08;;;;;;;6.32;3.33;;;23.50;42.60;;;;;;4957979;29;20206;-85
2022/03/21 09:49:53;;;;;;;10.38;2.88;;;23.40;41.30;;;;;;4957038;29;20725;-86
2022/03/21 09:52:21;;;;;;;6.88;2.97;;;23.10;41.10;;;;;;4957807;29;20194;-86
2022/03/21 09:54:50;;;;;;;3.65;2.80;;;22.60;43.40;;;;;;4957692;29;20669;-86
2022/03/21 09:57:17;;;;;;;5.22;2.65;;;22.80;43.30;;;;;;4957564;29;20206;-86
2022/03/21 09:59:45;;;;;;;9.18;3.65;;;23.30;42.70;;;;;;4957524;29;20230;-86
2022/03/21 10:02:18;;;;;;;4.15;2.53;;;23.60;41.50;;;;;;4957274;29;20217;-86
2022/03/21 10:04:46;;;;;;;2.97;2.20;;;23.70;41.30;;;;;;4957507;29;20645;-86
2022/03/21 10:07:13;;;;;;;6.20;2.50;;;23.90;39.70;;;;;;4957199;29;20545;-86
2022/03/21 10:09:40;;;;;;;5.43;2.47;;;24.30;39.90;;;;;;4957829;29;20221;-86
2022/03/21 10:12:11;;;;;;;5.13;2.03;;;24.40;40.20;;;;;;4957582;29;20214;-86
2022/03/21 10:14:39;;;;;;;3.53;2.30;;;24.40;40.50;;;;;;4957411;29;20194;-86
2022/03/21 10:17:09;;;;;;;5.50;2.83;;;24.70;39.00;;;;;;4957326;29;20206;-86
2022/03/21 10:19:43;;;;;;;6.07;2.83;;;24.80;39.40;;;;;;4957734;29;20277;-86
2022/03/21 10:22:12;;;;;;;6.13;2.63;;;25.00;39.20;;;;;;4957679;29;20293;-87
2022/03/21 10:24:40;;;;;;;5.53;2.80;;;25.20;39.20;;;;;;4957975;29;20214;-87
2022/03/21 10:27:08;;;;;;;5.90;3.35;;;25.60;38.70;;;;;;4957510;29;20210;-87
2022/03/21 10:29:52;;;;;;;2.65;2.38;;;25.70;38.30;;;;;;4957241;29;20595;-86
2022/03/21 10:32:38;;;;;;;4.55;3.05;;;25.40;37.40;;;;;;4956748;28;20186;-86
2022/03/21 10:35:10;;;;;;;4.63;2.60;;;25.20;37.50;;;;;;4956625;29;20696;-85
2022/03/21 10:37:49;;;;;;;6.63;4.25;;;25.10;37.60;;;;;;4956623;29;20206;-85
2022/03/21 10:40:34;;;;;;;8.05;3.72;;;24.40;39.00;;;;;;4960591;29;20201;-84
2022/03/21 10:43:03;;;;;;;4.50;2.53;;;23.60;38.80;;;;;;4959369;29;20198;-85
2022/03/21 10:45:46;;;;;;;6.45;2.72;;;22.70;39.40;;;;;;4956798;29;20214;-85
2022/03/21 10:48:16;;;;;;;7.72;2.80;;;22.40;39.50;;;;;;4956423;29;20269;-85
2022/03/21 10:50:46;;;;;;;7.80;2.97;;;22.60;40.40;;;;;;4956564;29;20217;-85
2022/03/21 10:53:15;;;;;;;3.42;2.67;;;22.80;40.40;;;;;;4956634;29;20234;-84
2022/03/21 10:55:43;;;;;;;7.05;4.20;;;23.00;40.20;;;;;;4956451;29;20297;-85
2022/03/21 10:58:11;;;;;;;5.10;2.58;;;23.50;39.10;;;;;;4956190;29;20265;-85
2022/03/21 11:00:38;;;;;;;6.93;2.85;;;24.30;38.50;;;;;;4956119;29;20199;-85
2022/03/21 11:03:06;;;;;;;8.25;2.65;;;24.90;38.10;;;;;;4956384;29;20298;-85
2022/03/21 11:05:39;;;;;;;5.32;3.50;;;25.30;36.50;;;;;;4956071;29;20210;-85
2022/03/21 11:08:08;;;;;;;4.65;2.47;;;25.20;37.80;;;;;;4955940;29;20226;-85
2022/03/21 11:10:35;;;;;;;6.90;3.60;;;24.60;37.60;;;;;;4956160;29;20233;-85
2022/03/21 11:13:04;;;;;;;2.88;2.22;;;24.30;37.90;;;;;;4956248;29;20319;-85
2022/03/21 11:15:32;;;;;;;6.05;3.78;;;23.60;38.00;;;;;;4956212;29;20206;-85
2022/03/21 11:17:59;;;;;;;6.72;3.22;;;23.10;39.40;;;;;;4956138;29;20214;-85
2022/03/21 11:20:28;;;;;;;6.40;3.85;;;22.60;39.70;;;;;;4955826;29;20705;-85
2022/03/21 11:22:57;;;;;;;3.25;2.22;;;22.20;39.60;;;;;;4955860;29;20293;-85
2022/03/21 11:25:26;;;;;;;5.93;2.67;;;21.80;41.10;;;;;;4955649;29;20210;-85
2022/03/21 11:28:19;;;;;;;4.70;2.03;;;21.50;41.20;;;;;;4955892;29;20202;-85
2022/03/21 11:30:57;;;;;;;5.40;2.20;;;21.10;41.60;;;;;;4955477;29;20294;-85
2022/03/21 11:33:36;;;;;;;4.17;2.87;;;20.70;41.70;;;;;;4956395;29;20477;-85
2022/03/21 11:36:05;;;;;;;5.40;2.27;;;20.60;42.20;;;;;;4955884;29;20910;-85
2022/03/21 11:38:36;;;;;;;2.60;1.67;;;20.40;42.20;;;;;;4955674;29;20839;-85
2022/03/21 11:41:26;;;;;;;5.63;2.77;;;20.30;42.10;;;;;;4955450;29;20461;-85
2022/03/21 11:44:14;;;;;;;7.40;2.90;;;20.00;42.60;;;;;;4951622;28;20470;-85
2022/03/21 11:46:42;;;;;;;4.90;2.03;;;19.80;42.60;;;;;;4955445;29;20434;-85
2022/03/21 11:49:53;;;;;;;7.20;3.10;;;19.70;43.00;;;;;;4954663;29;20536;-85
2022/03/21 11:52:21;;;;;;;3.70;2.70;;;19.40;44.00;;;;;;4876987;29;20473;-85
2022/03/21 11:54:50;;;;;;;4.90;3.27;;;19.20;44.60;;;;;;4937135;29;20469;-85
2022/03/21 11:57:28;;;;;;;5.50;1.67;;;19.00;44.40;;;;;;4954516;29;20486;-84
2022/03/21 11:59:58;;;;;;;2.40;1.30;;;18.90;45.30;;;;;;4954360;29;21061;-85
2022/03/21 12:02:56;;;;;;;3.27;1.90;;;18.70;45.00;;;;;;4954752;29;20530;-85
2022/03/21 12:05:53;;;;;;;3.37;1.43;;;18.60;46.30;;;;;;4954948;29;20923;-83
2022/03/21 12:08:51;;;;;;;2.30;2.07;;;18.40;45.10;;;;;;4954859;29;20471;-78
2022/03/21 12:11:54;;;;;;;3.00;1.60;;;18.10;46.70;;;;;;4954515;29;20974;-84
2022/03/21 12:14:28;;;;;;;2.50;2.03;;;17.80;46.80;;;;;;4936133;29;20449;-83
2022/03/21 12:17:27;;;;;;;3.60;1.80;;;17.80;46.10;;;;;;4954468;29;20442;-84
2022/03/21 12:20:02;;;;;;;7.93;2.90;;;17.70;45.90;;;;;;4954045;29;20481;-83
2022/03/21 12:22:40;;;;;;;5.97;3.03;;;17.60;46.20;;;;;;4954480;29;20505;-83
2022/03/21 12:25:10;;;;;;;4.83;1.97;;;17.30;46.30;;;;;;4954412;29;20443;-82
2022/03/21 12:27:39;;;;;;;1.90;1.57;;;17.20;46.90;;;;;;4954254;29;20458;-83
2022/03/21 12:30:36;;;;;;;4.60;1.97;;;17.00;46.80;;;;;;4954324;29;20454;-82
2022/03/21 12:33:06;;;;;;;6.60;2.70;;;16.90;47.60;;;;;;4954263;29;20508;-82
2022/03/21 12:35:56;;;;;;;10.63;2.60;;;16.80;46.80;;;;;;4953957;29;20438;-83
2022/03/21 12:38:25;;;;;;;2.57;1.23;;;16.90;46.90;;;;;;4954136;29;20532;-82
2022/03/21 12:40:53;;;;;;;3.10;2.23;;;16.80;46.70;;;;;;4954145;29;20454;-82
2022/03/21 12:43:22;;;;;;;4.33;1.83;;;16.80;47.30;;;;;;4953866;29;20958;-82
2022/03/21 12:45:53;;;;;;;1.73;1.57;;;16.70;46.90;;;;;;4953903;29;20422;-83
2022/03/21 12:48:20;;;;;;;2.38;1.63;;;16.70;47.80;;;;;;4917686;29;1060001;-82
2022/03/21 12:50:49;;;;;;;4.83;1.03;;;16.70;47.80;;;;;;4956718;29;20218;-81
2022/03/21 12:53:19;;;;;;;6.30;1.60;;;16.80;47.10;;;;;;4960328;29;20462;-81
2022/03/21 12:55:46;;;;;;;4.17;1.90;;;16.80;46.50;;;;;;4960356;28;20454;-81
2022/03/21 12:58:14;;;;;;;4.10;3.37;;;16.90;46.70;;;;;;4963628;29;20520;-81
2022/03/21 13:00:43;;;;;;;4.07;1.43;;;17.00;45.70;;;;;;4963748;29;20473;-81
2022/03/21 13:03:13;;;;;;;3.90;2.27;;;16.90;46.00;;;;;;4963472;29;20801;-81
2022/03/21 13:11:21;;;;;;;6.70;2.73;;;17.10;44.50;;;;;;4962457;29;20468;-81
2022/03/21 13:13:53;;;;;;;3.40;2.20;;;17.10;44.50;;;;;;4962953;29;20434;-81
2022/03/21 13:16:21;;;;;;;7.53;2.17;;;17.00;45.40;;;;;;4963454;29;20473;-81
2022/03/21 13:18:50;;;;;;;3.20;2.10;;;16.90;44.40;;;;;;4961690;29;20561;-81
2022/03/21 13:21:18;;;;;;;3.30;1.93;;;16.80;45.20;;;;;;4961980;29;20979;-81
2022/03/21 13:23:46;;;;;;;6.63;2.20;;;16.80;44.10;;;;;;4961962;29;20442;-80
2022/03/21 13:26:15;;;;;;;2.17;1.33;;;16.80;44.30;;;;;;4961771;29;20446;-81
2022/03/21 13:28:43;;;;;;;5.27;1.23;;;16.60;45.20;;;;;;4960443;29;20474;-81
2022/03/21 13:31:16;;;;;;;3.47;1.17;;;16.60;45.10;;;;;;4961572;29;20473;-81
2022/03/21 13:33:53;;;;;;;2.60;1.40;;;16.70;45.20;;;;;;4961043;29;20438;-81